Robbins, North Carolina
Current Conditions -  °F | °C
As of 1:35 PM on Sunday 21 Dec 2014 (Local Time) from KSOP Reporting Station
Overcast Overcast  
Wind Chill: 45°   Ceiling: 4100
Heat Index: 48°   Visibility: 10mi
Dew Point: 36°   Wind: 7mph
Humidity: 62%   Direction: 70°ENE
Pressure: 30.23"   Gusts: NA
Location:  35.43°N, 79.59°W
Report Text: KSOP 211835Z AUTO 07006KT 10SM BKN041 OVC047 09/02 A3023 RMK AO1
Loading
Personal Weather Stations






























Interactive Weather Map New forecast layout! Learn more

10-Day Weather Forecast

Advertisements
Track Severe Weather on mobile